sensor_id;sensor_type;location;lat;lon;timestamp;P1;durP1;ratioP1;P2;durP2;ratioP2
8993;SDS011;4532;50.886;4.700;2023-08-08T00:01:50;4.07;;;1.80;;
8993;SDS011;4532;50.886;4.700;2023-08-08T00:04:18;4.10;;;1.90;;
8993;SDS011;4532;50.886;4.700;2023-08-08T00:06:47;5.03;;;1.83;;
8993;SDS011;4532;50.886;4.700;2023-08-08T00:09:14;5.13;;;1.93;;
8993;SDS011;4532;50.886;4.700;2023-08-08T00:11:44;5.57;;;1.90;;
8993;SDS011;4532;50.886;4.700;2023-08-08T00:14:11;3.47;;;1.83;;
8993;SDS011;4532;50.886;4.700;2023-08-08T00:16:38;3.07;;;1.90;;
8993;SDS011;4532;50.886;4.700;2023-08-08T00:19:06;3.00;;;1.70;;
8993;SDS011;4532;50.886;4.700;2023-08-08T00:21:33;4.63;;;2.00;;
8993;SDS011;4532;50.886;4.700;2023-08-08T00:24:00;3.20;;;1.90;;
8993;SDS011;4532;50.886;4.700;2023-08-08T00:26:27;4.30;;;1.80;;
8993;SDS011;4532;50.886;4.700;2023-08-08T00:28:55;3.40;;;1.90;;
8993;SDS011;4532;50.886;4.700;2023-08-08T00:31:22;4.27;;;2.07;;
8993;SDS011;4532;50.886;4.700;2023-08-08T00:33:52;3.63;;;1.60;;
8993;SDS011;4532;50.886;4.700;2023-08-08T00:36:21;4.33;;;1.77;;
8993;SDS011;4532;50.886;4.700;2023-08-08T00:38:48;4.73;;;1.93;;
8993;SDS011;4532;50.886;4.700;2023-08-08T00:41:20;5.33;;;1.97;;
8993;SDS011;4532;50.886;4.700;2023-08-08T00:43:50;3.40;;;1.40;;
8993;SDS011;4532;50.886;4.700;2023-08-08T00:46:20;2.93;;;1.80;;
8993;SDS011;4532;50.886;4.700;2023-08-08T00:48:49;2.80;;;1.80;;
8993;SDS011;4532;50.886;4.700;2023-08-08T00:51:19;3.67;;;2.03;;
8993;SDS011;4532;50.886;4.700;2023-08-08T00:53:47;3.30;;;1.70;;
8993;SDS011;4532;50.886;4.700;2023-08-08T00:56:16;4.00;;;1.87;;
8993;SDS011;4532;50.886;4.700;2023-08-08T00:58:48;5.53;;;2.00;;
8993;SDS011;4532;50.886;4.700;2023-08-08T01:01:17;4.57;;;1.93;;
8993;SDS011;4532;50.886;4.700;2023-08-08T01:03:46;3.63;;;1.73;;
8993;SDS011;4532;50.886;4.700;2023-08-08T01:09:26;3.67;;;1.73;;
8993;SDS011;4532;50.886;4.700;2023-08-08T01:12:03;4.67;;;1.90;;
8993;SDS011;4532;50.886;4.700;2023-08-08T01:14:37;4.77;;;2.00;;
8993;SDS011;4532;50.886;4.700;2023-08-08T01:17:11;6.13;;;2.13;;
8993;SDS011;4532;50.886;4.700;2023-08-08T01:19:45;4.73;;;1.97;;
8993;SDS011;4532;50.886;4.700;2023-08-08T01:22:25;6.57;;;2.37;;
8993;SDS011;4532;50.886;4.700;2023-08-08T01:25:01;7.97;;;2.27;;
8993;SDS011;4532;50.886;4.700;2023-08-08T01:27:29;5.90;;;2.20;;
8993;SDS011;4532;50.886;4.700;2023-08-08T01:29:59;5.03;;;2.23;;
8993;SDS011;4532;50.886;4.700;2023-08-08T01:32:29;5.40;;;2.20;;
8993;SDS011;4532;50.886;4.700;2023-08-08T01:34:56;5.53;;;2.03;;
8993;SDS011;4532;50.886;4.700;2023-08-08T01:37:29;6.50;;;2.27;;
8993;SDS011;4532;50.886;4.700;2023-08-08T01:40:02;5.83;;;2.03;;
8993;SDS011;4532;50.886;4.700;2023-08-08T01:42:34;8.47;;;2.23;;
8993;SDS011;4532;50.886;4.700;2023-08-08T01:45:04;5.47;;;1.80;;
8993;SDS011;4532;50.886;4.700;2023-08-08T01:47:34;5.73;;;2.10;;
8993;SDS011;4532;50.886;4.700;2023-08-08T01:50:10;5.00;;;2.30;;
8993;SDS011;4532;50.886;4.700;2023-08-08T01:52:40;4.80;;;1.93;;
8993;SDS011;4532;50.886;4.700;2023-08-08T01:55:07;4.53;;;1.60;;
8993;SDS011;4532;50.886;4.700;2023-08-08T01:57:35;3.17;;;1.90;;
8993;SDS011;4532;50.886;4.700;2023-08-08T02:00:02;5.27;;;2.17;;
8993;SDS011;4532;50.886;4.700;2023-08-08T02:02:33;7.37;;;2.77;;
8993;SDS011;4532;50.886;4.700;2023-08-08T02:05:05;7.07;;;2.30;;
8993;SDS011;4532;50.886;4.700;2023-08-08T02:07:32;5.40;;;2.30;;
8993;SDS011;4532;50.886;4.700;2023-08-08T02:10:00;6.37;;;2.30;;
8993;SDS011;4532;50.886;4.700;2023-08-08T02:12:27;5.60;;;2.30;;
8993;SDS011;4532;50.886;4.700;2023-08-08T02:14:58;7.17;;;2.30;;
8993;SDS011;4532;50.886;4.700;2023-08-08T02:17:28;4.77;;;2.00;;
8993;SDS011;4532;50.886;4.700;2023-08-08T02:19:56;6.20;;;2.87;;
8993;SDS011;4532;50.886;4.700;2023-08-08T02:22:24;6.23;;;2.30;;
8993;SDS011;4532;50.886;4.700;2023-08-08T02:24:52;6.60;;;2.27;;
8993;SDS011;4532;50.886;4.700;2023-08-08T02:27:19;9.33;;;2.23;;
8993;SDS011;4532;50.886;4.700;2023-08-08T02:29:46;6.13;;;2.60;;
8993;SDS011;4532;50.886;4.700;2023-08-08T02:32:13;7.33;;;2.73;;
8993;SDS011;4532;50.886;4.700;2023-08-08T02:34:43;7.20;;;2.77;;
8993;SDS011;4532;50.886;4.700;2023-08-08T02:37:11;7.73;;;2.43;;
8993;SDS011;4532;50.886;4.700;2023-08-08T02:39:38;9.37;;;2.40;;
8993;SDS011;4532;50.886;4.700;2023-08-08T02:42:05;9.50;;;2.67;;
8993;SDS011;4532;50.886;4.700;2023-08-08T02:44:32;7.77;;;2.43;;
8993;SDS011;4532;50.886;4.700;2023-08-08T02:47:02;6.50;;;2.40;;
8993;SDS011;4532;50.886;4.700;2023-08-08T02:49:34;8.90;;;2.40;;
8993;SDS011;4532;50.886;4.700;2023-08-08T02:52:01;5.47;;;2.00;;
8993;SDS011;4532;50.886;4.700;2023-08-08T02:54:32;9.53;;;2.77;;
8993;SDS011;4532;50.886;4.700;2023-08-08T02:56:59;4.83;;;2.57;;
8993;SDS011;4532;50.886;4.700;2023-08-08T02:59:27;4.10;;;2.60;;
8993;SDS011;4532;50.886;4.700;2023-08-08T03:01:54;11.10;;;2.97;;
8993;SDS011;4532;50.886;4.700;2023-08-08T03:04:21;8.27;;;2.40;;
8993;SDS011;4532;50.886;4.700;2023-08-08T03:06:52;5.73;;;2.50;;
8993;SDS011;4532;50.886;4.700;2023-08-08T03:09:27;6.13;;;2.80;;
8993;SDS011;4532;50.886;4.700;2023-08-08T03:11:54;6.43;;;2.57;;
8993;SDS011;4532;50.886;4.700;2023-08-08T03:14:21;6.80;;;2.70;;
8993;SDS011;4532;50.886;4.700;2023-08-08T03:16:51;9.33;;;2.50;;
8993;SDS011;4532;50.886;4.700;2023-08-08T03:19:20;6.47;;;2.70;;
8993;SDS011;4532;50.886;4.700;2023-08-08T03:21:48;7.30;;;2.60;;
8993;SDS011;4532;50.886;4.700;2023-08-08T03:24:15;7.30;;;2.47;;
8993;SDS011;4532;50.886;4.700;2023-08-08T03:26:45;7.60;;;2.40;;
8993;SDS011;4532;50.886;4.700;2023-08-08T03:29:12;6.07;;;2.90;;
8993;SDS011;4532;50.886;4.700;2023-08-08T03:31:39;10.13;;;2.63;;
8993;SDS011;4532;50.886;4.700;2023-08-08T03:34:06;6.00;;;2.50;;
8993;SDS011;4532;50.886;4.700;2023-08-08T03:36:33;8.07;;;2.57;;
8993;SDS011;4532;50.886;4.700;2023-08-08T03:39:01;9.50;;;2.57;;
8993;SDS011;4532;50.886;4.700;2023-08-08T03:41:36;8.57;;;2.67;;
8993;SDS011;4532;50.886;4.700;2023-08-08T03:44:07;6.53;;;2.50;;
8993;SDS011;4532;50.886;4.700;2023-08-08T03:46:40;6.27;;;2.70;;
8993;SDS011;4532;50.886;4.700;2023-08-08T03:49:07;8.73;;;2.67;;
8993;SDS011;4532;50.886;4.700;2023-08-08T03:51:39;8.70;;;3.20;;
8993;SDS011;4532;50.886;4.700;2023-08-08T03:54:06;7.50;;;2.67;;
8993;SDS011;4532;50.886;4.700;2023-08-08T03:56:36;6.53;;;2.63;;
8993;SDS011;4532;50.886;4.700;2023-08-08T03:59:06;7.03;;;2.70;;
8993;SDS011;4532;50.886;4.700;2023-08-08T04:01:38;8.50;;;2.87;;
8993;SDS011;4532;50.886;4.700;2023-08-08T04:04:05;7.10;;;3.03;;
8993;SDS011;4532;50.886;4.700;2023-08-08T04:06:33;9.20;;;3.10;;
8993;SDS011;4532;50.886;4.700;2023-08-08T04:09:00;9.13;;;3.20;;
8993;SDS011;4532;50.886;4.700;2023-08-08T04:11:30;8.73;;;3.50;;
8993;SDS011;4532;50.886;4.700;2023-08-08T04:14:04;10.30;;;3.03;;
8993;SDS011;4532;50.886;4.700;2023-08-08T04:16:33;9.23;;;3.00;;
8993;SDS011;4532;50.886;4.700;2023-08-08T04:19:00;8.53;;;3.23;;
8993;SDS011;4532;50.886;4.700;2023-08-08T04:21:32;9.57;;;3.33;;
8993;SDS011;4532;50.886;4.700;2023-08-08T04:24:02;10.77;;;3.73;;
8993;SDS011;4532;50.886;4.700;2023-08-08T04:26:29;9.87;;;3.63;;
8993;SDS011;4532;50.886;4.700;2023-08-08T04:29:04;6.77;;;3.23;;
8993;SDS011;4532;50.886;4.700;2023-08-08T04:31:37;5.60;;;3.20;;
8993;SDS011;4532;50.886;4.700;2023-08-08T04:34:06;8.17;;;3.60;;
8993;SDS011;4532;50.886;4.700;2023-08-08T04:36:34;6.93;;;3.23;;
8993;SDS011;4532;50.886;4.700;2023-08-08T04:39:01;7.30;;;3.00;;
8993;SDS011;4532;50.886;4.700;2023-08-08T04:41:30;8.03;;;3.40;;
8993;SDS011;4532;50.886;4.700;2023-08-08T04:43:58;13.50;;;3.50;;
8993;SDS011;4532;50.886;4.700;2023-08-08T04:46:27;9.00;;;3.30;;
8993;SDS011;4532;50.886;4.700;2023-08-08T04:48:55;7.60;;;3.73;;
8993;SDS011;4532;50.886;4.700;2023-08-08T04:51:24;6.55;;;3.00;;
8993;SDS011;4532;50.886;4.700;2023-08-08T04:53:51;11.73;;;3.35;;
8993;SDS011;4532;50.886;4.700;2023-08-08T04:56:18;7.83;;;3.50;;
8993;SDS011;4532;50.886;4.700;2023-08-08T04:58:45;8.63;;;3.10;;
8993;SDS011;4532;50.886;4.700;2023-08-08T05:01:12;10.33;;;3.90;;
8993;SDS011;4532;50.886;4.700;2023-08-08T05:03:42;9.17;;;3.70;;
8993;SDS011;4532;50.886;4.700;2023-08-08T05:06:09;8.63;;;2.93;;
8993;SDS011;4532;50.886;4.700;2023-08-08T05:08:36;10.07;;;3.90;;
8993;SDS011;4532;50.886;4.700;2023-08-08T05:11:05;7.63;;;3.23;;
8993;SDS011;4532;50.886;4.700;2023-08-08T05:13:32;10.97;;;3.50;;
8993;SDS011;4532;50.886;4.700;2023-08-08T05:15:59;10.43;;;3.23;;
8993;SDS011;4532;50.886;4.700;2023-08-08T05:18:26;8.90;;;2.90;;
8993;SDS011;4532;50.886;4.700;2023-08-08T05:20:54;8.93;;;3.60;;
8993;SDS011;4532;50.886;4.700;2023-08-08T05:23:28;7.97;;;3.00;;
8993;SDS011;4532;50.886;4.700;2023-08-08T05:25:56;9.93;;;3.03;;
8993;SDS011;4532;50.886;4.700;2023-08-08T05:28:23;9.80;;;3.20;;
8993;SDS011;4532;50.886;4.700;2023-08-08T05:30:50;8.87;;;3.17;;
8993;SDS011;4532;50.886;4.700;2023-08-08T05:33:21;8.37;;;3.30;;
8993;SDS011;4532;50.886;4.700;2023-08-08T05:35:48;8.63;;;2.80;;
8993;SDS011;4532;50.886;4.700;2023-08-08T05:38:15;8.97;;;2.80;;
8993;SDS011;4532;50.886;4.700;2023-08-08T05:40:42;9.47;;;3.23;;
8993;SDS011;4532;50.886;4.700;2023-08-08T05:43:09;10.40;;;2.53;;
8993;SDS011;4532;50.886;4.700;2023-08-08T05:45:37;9.13;;;2.90;;
8993;SDS011;4532;50.886;4.700;2023-08-08T05:48:04;9.57;;;2.47;;
8993;SDS011;4532;50.886;4.700;2023-08-08T05:50:32;7.53;;;2.70;;
8993;SDS011;4532;50.886;4.700;2023-08-08T05:52:59;9.53;;;3.03;;
8993;SDS011;4532;50.886;4.700;2023-08-08T05:55:27;9.60;;;3.00;;
8993;SDS011;4532;50.886;4.700;2023-08-08T05:57:56;8.00;;;3.27;;
8993;SDS011;4532;50.886;4.700;2023-08-08T06:00:23;8.27;;;2.90;;
8993;SDS011;4532;50.886;4.700;2023-08-08T06:02:51;7.30;;;3.23;;
8993;SDS011;4532;50.886;4.700;2023-08-08T06:05:21;7.67;;;2.67;;
8993;SDS011;4532;50.886;4.700;2023-08-08T06:07:51;10.00;;;3.17;;
8993;SDS011;4532;50.886;4.700;2023-08-08T06:10:21;9.17;;;3.03;;
8993;SDS011;4532;50.886;4.700;2023-08-08T06:12:51;11.00;;;3.20;;
8993;SDS011;4532;50.886;4.700;2023-08-08T06:15:21;13.25;;;3.60;;
8993;SDS011;4532;50.886;4.700;2023-08-08T06:17:50;10.33;;;3.00;;
8993;SDS011;4532;50.886;4.700;2023-08-08T06:20:18;12.00;;;2.93;;
8993;SDS011;4532;50.886;4.700;2023-08-08T06:22:48;7.07;;;2.77;;
8993;SDS011;4532;50.886;4.700;2023-08-08T06:25:15;8.23;;;3.17;;
8993;SDS011;4532;50.886;4.700;2023-08-08T06:27:45;11.07;;;3.53;;
8993;SDS011;4532;50.886;4.700;2023-08-08T06:30:20;11.97;;;3.47;;
8993;SDS011;4532;50.886;4.700;2023-08-08T06:32:52;8.43;;;3.50;;
8993;SDS011;4532;50.886;4.700;2023-08-08T06:35:21;10.47;;;3.10;;
8993;SDS011;4532;50.886;4.700;2023-08-08T06:37:48;6.20;;;2.77;;
8993;SDS011;4532;50.886;4.700;2023-08-08T06:40:19;8.57;;;3.20;;
8993;SDS011;4532;50.886;4.700;2023-08-08T06:42:47;17.07;;;4.50;;
8993;SDS011;4532;50.886;4.700;2023-08-08T06:45:15;53.03;;;10.87;;
8993;SDS011;4532;50.886;4.700;2023-08-08T06:47:42;41.40;;;7.40;;
8993;SDS011;4532;50.886;4.700;2023-08-08T06:50:11;14.97;;;4.13;;
8993;SDS011;4532;50.886;4.700;2023-08-08T06:52:43;15.53;;;4.10;;
8993;SDS011;4532;50.886;4.700;2023-08-08T06:55:10;11.07;;;3.30;;
8993;SDS011;4532;50.886;4.700;2023-08-08T06:57:38;7.47;;;2.77;;
8993;SDS011;4532;50.886;4.700;2023-08-08T07:00:05;5.97;;;2.60;;
8993;SDS011;4532;50.886;4.700;2023-08-08T07:02:35;8.73;;;3.17;;
8993;SDS011;4532;50.886;4.700;2023-08-08T07:05:02;9.53;;;2.93;;
8993;SDS011;4532;50.886;4.700;2023-08-08T07:07:30;7.10;;;2.93;;
8993;SDS011;4532;50.886;4.700;2023-08-08T07:09:59;8.30;;;2.65;;
8993;SDS011;4532;50.886;4.700;2023-08-08T07:12:30;5.87;;;2.60;;
8993;SDS011;4532;50.886;4.700;2023-08-08T07:14:59;12.93;;;3.47;;
8993;SDS011;4532;50.886;4.700;2023-08-08T07:17:26;12.55;;;3.20;;
8993;SDS011;4532;50.886;4.700;2023-08-08T07:19:54;8.32;;;2.60;;
8993;SDS011;4532;50.886;4.700;2023-08-08T07:22:21;8.48;;;3.08;;
8993;SDS011;4532;50.886;4.700;2023-08-08T07:24:52;10.55;;;2.80;;
8993;SDS011;4532;50.886;4.700;2023-08-08T07:27:19;9.95;;;2.70;;
8993;SDS011;4532;50.886;4.700;2023-08-08T07:29:46;5.32;;;2.55;;
8993;SDS011;4532;50.886;4.700;2023-08-08T07:32:13;8.40;;;3.05;;
8993;SDS011;4532;50.886;4.700;2023-08-08T07:34:44;10.32;;;3.05;;
8993;SDS011;4532;50.886;4.700;2023-08-08T07:37:16;7.68;;;2.58;;
8993;SDS011;4532;50.886;4.700;2023-08-08T07:39:43;9.15;;;2.90;;
8993;SDS011;4532;50.886;4.700;2023-08-08T07:42:10;7.10;;;2.80;;
8993;SDS011;4532;50.886;4.700;2023-08-08T07:44:38;7.15;;;2.33;;
8993;SDS011;4532;50.886;4.700;2023-08-08T07:47:07;9.23;;;2.97;;
8993;SDS011;4532;50.886;4.700;2023-08-08T07:49:39;8.35;;;2.90;;
8993;SDS011;4532;50.886;4.700;2023-08-08T07:52:13;8.88;;;3.20;;
8993;SDS011;4532;50.886;4.700;2023-08-08T07:54:41;8.88;;;3.00;;
8993;SDS011;4532;50.886;4.700;2023-08-08T07:57:11;8.63;;;3.10;;
8993;SDS011;4532;50.886;4.700;2023-08-08T07:59:38;9.82;;;3.40;;
8993;SDS011;4532;50.886;4.700;2023-08-08T08:02:18;7.73;;;2.77;;
8993;SDS011;4532;50.886;4.700;2023-08-08T08:04:45;7.78;;;2.88;;
8993;SDS011;4532;50.886;4.700;2023-08-08T08:07:13;8.43;;;3.00;;
8993;SDS011;4532;50.886;4.700;2023-08-08T08:09:40;5.85;;;2.97;;
8993;SDS011;4532;50.886;4.700;2023-08-08T08:12:09;9.90;;;3.47;;
8993;SDS011;4532;50.886;4.700;2023-08-08T08:14:37;7.43;;;2.90;;
8993;SDS011;4532;50.886;4.700;2023-08-08T08:17:04;8.13;;;3.30;;
8993;SDS011;4532;50.886;4.700;2023-08-08T08:19:31;8.38;;;3.75;;
8993;SDS011;4532;50.886;4.700;2023-08-08T08:21:58;10.00;;;3.60;;
8993;SDS011;4532;50.886;4.700;2023-08-08T08:24:26;8.02;;;3.38;;
8993;SDS011;4532;50.886;4.700;2023-08-08T08:26:56;6.80;;;3.17;;
8993;SDS011;4532;50.886;4.700;2023-08-08T08:29:23;7.68;;;3.63;;
8993;SDS011;4532;50.886;4.700;2023-08-08T08:31:52;9.52;;;3.60;;
8993;SDS011;4532;50.886;4.700;2023-08-08T08:34:20;7.53;;;3.45;;
8993;SDS011;4532;50.886;4.700;2023-08-08T08:36:47;9.68;;;3.75;;
8993;SDS011;4532;50.886;4.700;2023-08-08T08:39:14;9.68;;;3.40;;
8993;SDS011;4532;50.886;4.700;2023-08-08T08:41:44;7.65;;;3.33;;
8993;SDS011;4532;50.886;4.700;2023-08-08T08:44:25;8.20;;;3.42;;
8993;SDS011;4532;50.886;4.700;2023-08-08T08:46:57;8.98;;;3.80;;
8993;SDS011;4532;50.886;4.700;2023-08-08T08:49:31;7.03;;;3.10;;
8993;SDS011;4532;50.886;4.700;2023-08-08T08:52:02;8.45;;;3.25;;
8993;SDS011;4532;50.886;4.700;2023-08-08T08:54:33;6.55;;;3.00;;
8993;SDS011;4532;50.886;4.700;2023-08-08T08:57:01;7.63;;;3.42;;
8993;SDS011;4532;50.886;4.700;2023-08-08T08:59:31;10.65;;;3.22;;
8993;SDS011;4532;50.886;4.700;2023-08-08T09:02:01;9.80;;;3.35;;
8993;SDS011;4532;50.886;4.700;2023-08-08T09:04:30;8.15;;;2.97;;
8993;SDS011;4532;50.886;4.700;2023-08-08T09:06:58;7.13;;;2.35;;
8993;SDS011;4532;50.886;4.700;2023-08-08T09:09:26;8.80;;;2.97;;
8993;SDS011;4532;50.886;4.700;2023-08-08T09:11:56;12.02;;;3.25;;
8993;SDS011;4532;50.886;4.700;2023-08-08T09:14:24;6.13;;;2.67;;
8993;SDS011;4532;50.886;4.700;2023-08-08T09:17:01;5.40;;;2.70;;
8993;SDS011;4532;50.886;4.700;2023-08-08T09:19:31;7.68;;;2.53;;
8993;SDS011;4532;50.886;4.700;2023-08-08T09:21:58;8.70;;;2.85;;
8993;SDS011;4532;50.886;4.700;2023-08-08T09:24:28;5.90;;;2.70;;
8993;SDS011;4532;50.886;4.700;2023-08-08T09:26:55;6.07;;;2.47;;
8993;SDS011;4532;50.886;4.700;2023-08-08T09:29:22;7.05;;;2.95;;
8993;SDS011;4532;50.886;4.700;2023-08-08T09:31:52;6.85;;;2.97;;
8993;SDS011;4532;50.886;4.700;2023-08-08T09:34:24;9.27;;;3.22;;
8993;SDS011;4532;50.886;4.700;2023-08-08T09:36:52;7.78;;;3.00;;
8993;SDS011;4532;50.886;4.700;2023-08-08T09:39:25;6.53;;;2.70;;
8993;SDS011;4532;50.886;4.700;2023-08-08T09:42:01;6.75;;;2.60;;
8993;SDS011;4532;50.886;4.700;2023-08-08T09:44:31;8.55;;;2.70;;
8993;SDS011;4532;50.886;4.700;2023-08-08T09:47:11;6.57;;;2.53;;
8993;SDS011;4532;50.886;4.700;2023-08-08T09:49:39;9.48;;;2.67;;
8993;SDS011;4532;50.886;4.700;2023-08-08T09:52:07;5.25;;;2.35;;
8993;SDS011;4532;50.886;4.700;2023-08-08T09:54:37;6.68;;;2.63;;
8993;SDS011;4532;50.886;4.700;2023-08-08T09:57:07;7.45;;;2.50;;
8993;SDS011;4532;50.886;4.700;2023-08-08T09:59:35;5.45;;;2.40;;
8993;SDS011;4532;50.886;4.700;2023-08-08T10:02:05;7.15;;;2.45;;
8993;SDS011;4532;50.886;4.700;2023-08-08T10:04:44;6.90;;;2.50;;
8993;SDS011;4532;50.886;4.700;2023-08-08T10:07:20;7.25;;;2.70;;
8993;SDS011;4532;50.886;4.700;2023-08-08T10:09:49;5.18;;;2.28;;
8993;SDS011;4532;50.886;4.700;2023-08-08T10:12:17;7.72;;;2.38;;
8993;SDS011;4532;50.886;4.700;2023-08-08T10:14:48;6.97;;;2.05;;
8993;SDS011;4532;50.886;4.700;2023-08-08T10:17:16;8.35;;;2.28;;
8993;SDS011;4532;50.886;4.700;2023-08-08T10:19:53;5.57;;;2.28;;
8993;SDS011;4532;50.886;4.700;2023-08-08T10:22:21;5.00;;;2.40;;
8993;SDS011;4532;50.886;4.700;2023-08-08T10:24:51;6.80;;;2.25;;
8993;SDS011;4532;50.886;4.700;2023-08-08T10:27:33;5.97;;;2.28;;
8993;SDS011;4532;50.886;4.700;2023-08-08T10:30:05;6.40;;;2.05;;
8993;SDS011;4532;50.886;4.700;2023-08-08T10:32:43;5.40;;;2.15;;
8993;SDS011;4532;50.886;4.700;2023-08-08T10:35:13;6.28;;;2.10;;
8993;SDS011;4532;50.886;4.700;2023-08-08T10:37:51;7.68;;;2.13;;
8993;SDS011;4532;50.886;4.700;2023-08-08T10:40:20;4.13;;;1.83;;
8993;SDS011;4532;50.886;4.700;2023-08-08T10:42:52;3.85;;;2.00;;
8993;SDS011;4532;50.886;4.700;2023-08-08T10:45:20;8.82;;;2.20;;
8993;SDS011;4532;50.886;4.700;2023-08-08T10:47:55;3.80;;;1.67;;
8993;SDS011;4532;50.886;4.700;2023-08-08T10:50:25;5.05;;;2.20;;
8993;SDS011;4532;50.886;4.700;2023-08-08T10:52:53;4.50;;;2.05;;
8993;SDS011;4532;50.886;4.700;2023-08-08T10:55:24;7.57;;;2.10;;
8993;SDS011;4532;50.886;4.700;2023-08-08T10:57:58;4.72;;;2.00;;
8993;SDS011;4532;50.886;4.700;2023-08-08T11:00:31;6.55;;;1.65;;
8993;SDS011;4532;50.886;4.700;2023-08-08T11:03:05;5.80;;;2.08;;
8993;SDS011;4532;50.886;4.700;2023-08-08T11:05:36;4.82;;;1.73;;
8993;SDS011;4532;50.886;4.700;2023-08-08T11:08:08;4.72;;;1.67;;
8993;SDS011;4532;50.886;4.700;2023-08-08T11:10:35;5.90;;;1.80;;
8993;SDS011;4532;50.886;4.700;2023-08-08T11:13:06;4.35;;;2.03;;
8993;SDS011;4532;50.886;4.700;2023-08-08T11:15:35;5.32;;;1.70;;
8993;SDS011;4532;50.886;4.700;2023-08-08T11:18:03;3.17;;;1.77;;
8993;SDS011;4532;50.886;4.700;2023-08-08T11:20:34;2.47;;;1.60;;
8993;SDS011;4532;50.886;4.700;2023-08-08T11:23:03;2.83;;;1.45;;
8993;SDS011;4532;50.886;4.700;2023-08-08T11:25:39;5.70;;;2.03;;
8993;SDS011;4532;50.886;4.700;2023-08-08T11:28:11;4.03;;;1.83;;
8993;SDS011;4532;50.886;4.700;2023-08-08T11:30:44;4.40;;;1.80;;
8993;SDS011;4532;50.886;4.700;2023-08-08T11:33:13;4.43;;;1.98;;
8993;SDS011;4532;50.886;4.700;2023-08-08T11:35:48;6.30;;;1.80;;
8993;SDS011;4532;50.886;4.700;2023-08-08T11:38:17;4.28;;;1.90;;
8993;SDS011;4532;50.886;4.700;2023-08-08T11:40:47;4.38;;;1.55;;
8993;SDS011;4532;50.886;4.700;2023-08-08T11:43:14;2.30;;;1.42;;
8993;SDS011;4532;50.886;4.700;2023-08-08T11:45:44;4.15;;;1.60;;
8993;SDS011;4532;50.886;4.700;2023-08-08T11:48:16;4.20;;;1.45;;
8993;SDS011;4532;50.886;4.700;2023-08-08T11:50:52;2.75;;;1.42;;
8993;SDS011;4532;50.886;4.700;2023-08-08T11:53:19;2.55;;;1.40;;
8993;SDS011;4532;50.886;4.700;2023-08-08T11:55:50;3.70;;;1.60;;
8993;SDS011;4532;50.886;4.700;2023-08-08T11:58:20;3.75;;;1.30;;
8993;SDS011;4532;50.886;4.700;2023-08-08T12:00:50;2.72;;;1.70;;
8993;SDS011;4532;50.886;4.700;2023-08-08T12:03:18;3.42;;;1.80;;
8993;SDS011;4532;50.886;4.700;2023-08-08T12:05:46;2.70;;;1.33;;
8993;SDS011;4532;50.886;4.700;2023-08-08T12:08:19;2.83;;;1.52;;
8993;SDS011;4532;50.886;4.700;2023-08-08T12:10:50;3.00;;;1.30;;
8993;SDS011;4532;50.886;4.700;2023-08-08T12:13:23;2.90;;;1.40;;
8993;SDS011;4532;50.886;4.700;2023-08-08T12:15:54;3.78;;;1.40;;
8993;SDS011;4532;50.886;4.700;2023-08-08T12:18:22;4.20;;;1.52;;
8993;SDS011;4532;50.886;4.700;2023-08-08T12:20:52;3.38;;;1.48;;
8993;SDS011;4532;50.886;4.700;2023-08-08T12:23:19;5.28;;;1.17;;
8993;SDS011;4532;50.886;4.700;2023-08-08T12:25:46;3.50;;;1.10;;
8993;SDS011;4532;50.886;4.700;2023-08-08T12:28:13;2.88;;;1.20;;
8993;SDS011;4532;50.886;4.700;2023-08-08T12:30:40;3.25;;;1.55;;
8993;SDS011;4532;50.886;4.700;2023-08-08T12:33:08;3.70;;;1.40;;
8993;SDS011;4532;50.886;4.700;2023-08-08T12:35:35;2.78;;;1.20;;
8993;SDS011;4532;50.886;4.700;2023-08-08T12:38:05;1.90;;;1.30;;
8993;SDS011;4532;50.886;4.700;2023-08-08T12:40:34;4.43;;;1.50;;
8993;SDS011;4532;50.886;4.700;2023-08-08T12:43:04;2.05;;;1.40;;
8993;SDS011;4532;50.886;4.700;2023-08-08T12:45:31;4.25;;;1.50;;
8993;SDS011;4532;50.886;4.700;2023-08-08T12:47:58;4.25;;;1.50;;
8993;SDS011;4532;50.886;4.700;2023-08-08T12:50:26;3.42;;;1.60;;
8993;SDS011;4532;50.886;4.700;2023-08-08T12:52:53;3.53;;;1.27;;
8993;SDS011;4532;50.886;4.700;2023-08-08T12:55:21;2.83;;;1.10;;
8993;SDS011;4532;50.886;4.700;2023-08-08T12:57:53;3.90;;;1.05;;
8993;SDS011;4532;50.886;4.700;2023-08-08T13:00:20;3.92;;;1.30;;
8993;SDS011;4532;50.886;4.700;2023-08-08T13:02:48;2.75;;;1.60;;
8993;SDS011;4532;50.886;4.700;2023-08-08T13:05:20;5.07;;;1.20;;
8993;SDS011;4532;50.886;4.700;2023-08-08T13:07:52;1.20;;;1.10;;
8993;SDS011;4532;50.886;4.700;2023-08-08T13:10:24;2.03;;;1.15;;
8993;SDS011;4532;50.886;4.700;2023-08-08T13:12:51;1.73;;;1.35;;
8993;SDS011;4532;50.886;4.700;2023-08-08T13:15:22;1.90;;;1.23;;
8993;SDS011;4532;50.886;4.700;2023-08-08T13:17:49;2.45;;;1.50;;
8993;SDS011;4532;50.886;4.700;2023-08-08T13:20:19;3.97;;;1.70;;
8993;SDS011;4532;50.886;4.700;2023-08-08T13:22:48;4.22;;;1.50;;
8993;SDS011;4532;50.886;4.700;2023-08-08T13:25:15;4.85;;;1.60;;
8993;SDS011;4532;50.886;4.700;2023-08-08T13:27:45;2.42;;;1.27;;
8993;SDS011;4532;50.886;4.700;2023-08-08T13:30:15;2.50;;;1.70;;
8993;SDS011;4532;50.886;4.700;2023-08-08T13:32:49;4.22;;;1.60;;
8993;SDS011;4532;50.886;4.700;2023-08-08T13:35:16;3.75;;;1.35;;
8993;SDS011;4532;50.886;4.700;2023-08-08T13:37:44;1.80;;;1.27;;
8993;SDS011;4532;50.886;4.700;2023-08-08T13:40:17;2.58;;;1.15;;
8993;SDS011;4532;50.886;4.700;2023-08-08T13:42:50;1.50;;;1.30;;
8993;SDS011;4532;50.886;4.700;2023-08-08T13:45:22;2.47;;;1.10;;
8993;SDS011;4532;50.886;4.700;2023-08-08T13:47:49;2.80;;;1.30;;
8993;SDS011;4532;50.886;4.700;2023-08-08T13:50:17;1.55;;;1.17;;
8993;SDS011;4532;50.886;4.700;2023-08-08T13:52:49;2.97;;;1.40;;
8993;SDS011;4532;50.886;4.700;2023-08-08T13:55:16;3.15;;;1.52;;
8993;SDS011;4532;50.886;4.700;2023-08-08T13:57:43;2.10;;;1.30;;
8993;SDS011;4532;50.886;4.700;2023-08-08T14:00:11;2.67;;;1.30;;
8993;SDS011;4532;50.886;4.700;2023-08-08T14:02:39;2.50;;;1.50;;
8993;SDS011;4532;50.886;4.700;2023-08-08T14:05:10;3.15;;;1.50;;
8993;SDS011;4532;50.886;4.700;2023-08-08T14:07:39;1.60;;;1.40;;
8993;SDS011;4532;50.886;4.700;2023-08-08T14:10:09;2.75;;;1.52;;
8993;SDS011;4532;50.886;4.700;2023-08-08T14:12:37;2.33;;;1.40;;
8993;SDS011;4532;50.886;4.700;2023-08-08T14:15:07;5.43;;;1.63;;
8993;SDS011;4532;50.886;4.700;2023-08-08T14:17:37;2.58;;;1.23;;
8993;SDS011;4532;50.886;4.700;2023-08-08T14:20:06;2.13;;;1.38;;
8993;SDS011;4532;50.886;4.700;2023-08-08T14:22:37;3.40;;;1.42;;
8993;SDS011;4532;50.886;4.700;2023-08-08T14:25:10;2.20;;;1.33;;
8993;SDS011;4532;50.886;4.700;2023-08-08T14:27:46;3.28;;;1.50;;
8993;SDS011;4532;50.886;4.700;2023-08-08T14:30:22;3.45;;;1.70;;
8993;SDS011;4532;50.886;4.700;2023-08-08T14:32:57;5.57;;;1.88;;
8993;SDS011;4532;50.886;4.700;2023-08-08T14:35:26;3.83;;;1.42;;
8993;SDS011;4532;50.886;4.700;2023-08-08T14:37:54;3.03;;;1.40;;
8993;SDS011;4532;50.886;4.700;2023-08-08T14:40:21;3.30;;;1.30;;
8993;SDS011;4532;50.886;4.700;2023-08-08T14:42:49;3.53;;;1.20;;
8993;SDS011;4532;50.886;4.700;2023-08-08T14:45:19;2.97;;;1.30;;
8993;SDS011;4532;50.886;4.700;2023-08-08T14:47:50;2.13;;;1.10;;
8993;SDS011;4532;50.886;4.700;2023-08-08T14:50:17;2.85;;;1.10;;
8993;SDS011;4532;50.886;4.700;2023-08-08T14:52:45;2.20;;;1.10;;
8993;SDS011;4532;50.886;4.700;2023-08-08T14:55:14;2.30;;;1.20;;
8993;SDS011;4532;50.886;4.700;2023-08-08T14:57:42;3.33;;;1.30;;
8993;SDS011;4532;50.886;4.700;2023-08-08T15:00:11;2.83;;;1.20;;
8993;SDS011;4532;50.886;4.700;2023-08-08T15:02:39;1.67;;;1.23;;
8993;SDS011;4532;50.886;4.700;2023-08-08T15:05:09;4.22;;;1.20;;
8993;SDS011;4532;50.886;4.700;2023-08-08T15:07:42;2.47;;;1.38;;
8993;SDS011;4532;50.886;4.700;2023-08-08T15:10:09;2.95;;;1.20;;
8993;SDS011;4532;50.886;4.700;2023-08-08T15:12:44;5.80;;;1.35;;
8993;SDS011;4532;50.886;4.700;2023-08-08T15:15:15;4.25;;;1.40;;
8993;SDS011;4532;50.886;4.700;2023-08-08T15:17:43;4.50;;;1.90;;
8993;SDS011;4532;50.886;4.700;2023-08-08T15:20:13;3.45;;;1.70;;
8993;SDS011;4532;50.886;4.700;2023-08-08T15:22:44;3.50;;;1.20;;
8993;SDS011;4532;50.886;4.700;2023-08-08T15:25:11;1.88;;;1.10;;
8993;SDS011;4532;50.886;4.700;2023-08-08T15:27:41;3.35;;;1.58;;
8993;SDS011;4532;50.886;4.700;2023-08-08T15:30:08;1.67;;;1.20;;
8993;SDS011;4532;50.886;4.700;2023-08-08T15:32:36;3.30;;;1.10;;